Clara — V2CC9 — position and weather

sailwx.info

Track history (hours):
 
Tides and Currents Weather Stations Pressure Air Temp Water Temp Dewpoint Dewpoint Depression Visibility Wind Speed Wind Dir Waves Ship Positions

Clara

Last reported at 2014-Oct-21 20:26 UTC. Time now 2014-Oct-26 01:53 UTC.
Position N 36°02' W 009°07'.

Length 108 m; draft 7.1 m.

Type: Cargo ship. MMSI: 304983000.

Date/timePositionNaut miles runAvg speedWind from/ knotsBaromVisibWave heightAir tempDewpointWater temp
2014-Oct-21 20:26N 36°02' W 009°07'910.7
2014-Oct-21 19:33N 36°11' W 009°06'1110.7
2014-Oct-21 18:33N 36°22' W 009°05'8 8.5
2014-Oct-21 17:33N 36°30' W 009°08'1110.6
2014-Oct-21 16:33N 36°35' W 009°20'1111.1
2014-Oct-21 15:33N 36°43' W 009°29'1110.7
2014-Oct-21 14:33N 36°52' W 009°35'1111.0
2014-Oct-21 13:33N 37°03' W 009°38'1110.6
2014-Oct-21 12:33N 37°14' W 009°41'1010.4
2014-Oct-21 11:33N 37°24' W 009°44'1010.4
2014-Oct-21 10:33N 37°34' W 009°46'1010.1
2014-Oct-21 09:32N 37°44' W 009°48'1010.1
2014-Oct-21 08:33N 37°54' W 009°51'1010.1
2014-Oct-21 07:33N 38°04' W 009°54'1010.3
2014-Oct-21 06:33N 38°14' W 009°57'1110.6
2014-Oct-21 05:32N 38°24' W 010°00'1010.5
2014-Oct-21 04:33N 38°34' W 010°03'1310.4
2014-Oct-21 03:17N 38°47' W 010°05'811.1
2014-Oct-21 02:33N 38°55' W 010°05'1211.1
2014-Oct-21 01:31N 39°07' W 010°05'  
2014-Oct-18 10:33N 48°10' W 006°21'298 7.6
2014-Oct-16 19:12N 50°35' E 000°19'710.4
2014-Oct-16 18:33N 50°37' E 000°30'10 9.9
2014-Oct-16 17:33N 50°42' E 000°43'28 8.9
2014-Oct-16 14:26N 50°59' E 001°18'8 9.2
2014-Oct-16 13:33N 51°04' E 001°28'1010.1
2014-Oct-16 12:33N 51°11' E 001°40'1010.4
2014-Oct-16 11:33N 51°19' E 001°50'1010.3
2014-Oct-16 10:33N 51°27' E 001°60'10 9.8
2014-Oct-16 09:33N 51°34' E 002°11'10 9.4
2014-Oct-16 08:27N 51°42' E 002°22'12 9.0
2014-Oct-16 07:05N 51°51' E 002°35'9 8.9
2014-Oct-16 06:06N 51°58' E 002°45'5 8.9
2014-Oct-16 05:33N 52°01' E 002°50'3110.3
2014-Oct-16 02:31N 52°03' E 003°40'1010.1
2014-Oct-16 01:33N 52°02' E 003°56'1212.0
2014-Oct-16 00:33N 51°56' E 004°13'3 3.1
2014-Oct-15 23:32N 51°53' E 004°16'0 0.0
2014-Oct-15 22:33N 51°53' E 004°16'0 0.0
2014-Oct-15 21:29N 51°53' E 004°16'0 0.0
2014-Oct-15 20:32N 51°53' E 004°16'0 0.0
2014-Oct-15 19:32N 51°53' E 004°16'0 0.0
2014-Oct-15 18:32N 51°53' E 004°16'0 0.0
2014-Oct-15 17:29N 51°53' E 004°16'0 0.0
2014-Oct-15 16:29N 51°53' E 004°16'0 0.0
2014-Oct-15 15:32N 51°53' E 004°16'0 0.0
2014-Oct-15 14:29N 51°53' E 004°16'0 0.0
2014-Oct-15 13:32N 51°53' E 004°16'0 0.0
2014-Oct-15 12:32N 51°53' E 004°16'0 0.0
2014-Oct-15 11:32N 51°53' E 004°16'0 0.0
2014-Oct-15 10:29N 51°53' E 004°16'0 0.0
2014-Oct-15 09:26N 51°53' E 004°16'0 0.0
2014-Oct-15 08:32N 51°53' E 004°16'0 0.0
2014-Oct-15 07:32N 51°53' E 004°16'0 0.0
2014-Oct-15 06:32N 51°53' E 004°16'0 0.0
2014-Oct-15 05:32N 51°53' E 004°16'0 0.0
2014-Oct-15 04:32N 51°53' E 004°16'0 0.0
2014-Oct-15 03:32N 51°53' E 004°16'0 0.0
2014-Oct-15 02:29N 51°53' E 004°16'0 0.0
2014-Oct-15 01:32N 51°53' E 004°16'0 0.0
2014-Oct-15 00:32N 51°53' E 004°16'0 0.0
2014-Oct-14 23:32N 51°53' E 004°16'0 0.0
2014-Oct-14 22:32N 51°53' E 004°16'0 0.0
2014-Oct-14 21:32N 51°53' E 004°16'0 0.0
2014-Oct-14 20:32N 51°53' E 004°16'0 0.0
2014-Oct-14 19:32N 51°53' E 004°16'0 0.0
2014-Oct-14 18:32N 51°53' E 004°16'0 0.0
2014-Oct-14 17:32N 51°53' E 004°16'0 0.0
2014-Oct-14 16:26N 51°53' E 004°16'0 0.0
2014-Oct-14 15:32N 51°53' E 004°16'0 0.0
2014-Oct-14 14:32N 51°53' E 004°16'0 0.0
2014-Oct-14 13:32N 51°53' E 004°16'0 0.0
2014-Oct-14 12:29N 51°53' E 004°16'0 0.0
2014-Oct-14 11:32N 51°53' E 004°16'0 0.0
2014-Oct-14 10:32N 51°53' E 004°16'0 0.0
2014-Oct-14 09:32N 51°53' E 004°16'0 0.0
2014-Oct-14 08:32N 51°53' E 004°16'0 0.0
2014-Oct-14 07:32N 51°53' E 004°16'0 0.0
2014-Oct-14 06:32N 51°53' E 004°16'0 0.0
2014-Oct-14 05:26N 51°53' E 004°16'0 0.0
2014-Oct-14 04:32N 51°53' E 004°16'0 0.0
2014-Oct-14 03:32N 51°53' E 004°16'0 0.0
2014-Oct-14 02:32N 51°53' E 004°16'0 0.0
2014-Oct-14 01:32N 51°53' E 004°16'0 0.0
2014-Oct-14 00:32N 51°53' E 004°16'0 0.0
2014-Oct-13 23:32N 51°53' E 004°16'0 0.0
2014-Oct-13 22:32N 51°53' E 004°16'0 0.0
2014-Oct-13 21:32N 51°53' E 004°16'0 0.0
2014-Oct-13 20:32N 51°53' E 004°16'0 0.0
2014-Oct-13 19:29N 51°53' E 004°16'0 0.0
2014-Oct-13 18:32N 51°53' E 004°16'0 0.0
2014-Oct-13 17:26N 51°53' E 004°16'0 0.0
2014-Oct-13 16:32N 51°53' E 004°16'0 0.0
2014-Oct-13 15:32N 51°53' E 004°16'0 0.0
2014-Oct-13 14:32N 51°53' E 004°16'0 0.0
2014-Oct-13 13:32N 51°53' E 004°16'0 0.0
2014-Oct-13 12:29N 51°53' E 004°16'0 0.0
2014-Oct-13 11:32N 51°53' E 004°16'0 0.0
2014-Oct-13 10:26N 51°53' E 004°16'0 0.0
2014-Oct-13 09:23N 51°53' E 004°16'0 0.0
2014-Oct-13 08:29N 51°53' E 004°16'0 0.0
2014-Oct-13 07:32N 51°53' E 004°16'0 0.0
2014-Oct-13 06:32N 51°53' E 004°16'0 0.0
2014-Oct-13 05:32N 51°53' E 004°16'0 0.0
2014-Oct-13 04:32N 51°53' E 004°16'0 0.0
2014-Oct-13 03:26N 51°53' E 004°16'0 0.0
2014-Oct-13 02:32N 51°53' E 004°16'0 0.0
2014-Oct-13 01:29N 51°53' E 004°16'0 0.0
2014-Oct-13 00:26N 51°53' E 004°16'0 0.0
2014-Oct-12 23:32N 51°53' E 004°16'0 0.0
2014-Oct-12 22:26N 51°53' E 004°16'0 0.0
2014-Oct-12 21:32N 51°53' E 004°16'0 0.0
2014-Oct-12 20:26N 51°53' E 004°16'0 0.0
2014-Oct-12 19:29N 51°53' E 004°16'0 0.0
2014-Oct-12 18:29N 51°53' E 004°16'0 0.0
2014-Oct-12 17:32N 51°53' E 004°16'0 0.0
2014-Oct-12 16:29N 51°53' E 004°16'0 0.0
2014-Oct-12 15:29N 51°53' E 004°16'0 0.0
2014-Oct-12 14:32N 51°53' E 004°16'0 0.0
2014-Oct-12 13:32N 51°53' E 004°16'0 0.0
2014-Oct-12 12:32N 51°53' E 004°16'0 0.0
2014-Oct-12 11:32N 51°53' E 004°16'0 0.0
2014-Oct-12 10:32N 51°53' E 004°16'0 0.0
2014-Oct-12 09:32N 51°53' E 004°16'0 0.0
2014-Oct-12 08:32N 51°53' E 004°16'0 0.0
2014-Oct-12 07:32N 51°53' E 004°16'0 0.0
2014-Oct-12 06:32N 51°53' E 004°16'0 0.0
2014-Oct-12 05:32N 51°53' E 004°16'0 0.0
2014-Oct-12 04:32N 51°53' E 004°16'0 0.0
2014-Oct-12 03:32N 51°53' E 004°16'0 0.0
2014-Oct-12 02:29N 51°53' E 004°16'0 0.0
2014-Oct-12 01:32N 51°53' E 004°16'0 0.0
2014-Oct-12 00:32N 51°53' E 004°16'0 0.0
2014-Oct-11 23:32N 51°53' E 004°16'0 0.0
2014-Oct-11 22:32N 51°53' E 004°16'0 0.0
2014-Oct-11 21:29N 51°53' E 004°16'0 0.0
2014-Oct-11 20:32N 51°53' E 004°16'  
Track history (hours):
 
Tides and Currents Weather Stations Pressure Air Temp Water Temp Dewpoint Dewpoint Depression Visibility Wind Speed Wind Dir Waves Ship Positions

Clara

Last reported at 2014-Oct-21 20:26 UTC. Time now 2014-Oct-26 01:53 UTC.
Position N 36°02' W 009°07'.

Length 108 m; draft 7.1 m.

Type: Cargo ship. MMSI: 304983000.

Date/timePositionNaut miles runAvg speedWind from/ knotsBaromVisibWave heightAir tempDewpointWater temp
2014-Oct-21 20:26N 36°02' W 009°07'910.7
2014-Oct-21 19:33N 36°11' W 009°06'1110.7
2014-Oct-21 18:33N 36°22' W 009°05'8 8.5
2014-Oct-21 17:33N 36°30' W 009°08'1110.6
2014-Oct-21 16:33N 36°35' W 009°20'1111.1
2014-Oct-21 15:33N 36°43' W 009°29'1110.7
2014-Oct-21 14:33N 36°52' W 009°35'1111.0
2014-Oct-21 13:33N 37°03' W 009°38'1110.6
2014-Oct-21 12:33N 37°14' W 009°41'1010.4
2014-Oct-21 11:33N 37°24' W 009°44'1010.4
2014-Oct-21 10:33N 37°34' W 009°46'1010.1
2014-Oct-21 09:32N 37°44' W 009°48'1010.1
2014-Oct-21 08:33N 37°54' W 009°51'1010.1
2014-Oct-21 07:33N 38°04' W 009°54'1010.3
2014-Oct-21 06:33N 38°14' W 009°57'1110.6
2014-Oct-21 05:32N 38°24' W 010°00'1010.5
2014-Oct-21 04:33N 38°34' W 010°03'1310.4
2014-Oct-21 03:17N 38°47' W 010°05'811.1
2014-Oct-21 02:33N 38°55' W 010°05'1211.1
2014-Oct-21 01:31N 39°07' W 010°05'  
2014-Oct-18 10:33N 48°10' W 006°21'298 7.6
2014-Oct-16 19:12N 50°35' E 000°19'710.4
2014-Oct-16 18:33N 50°37' E 000°30'10 9.9
2014-Oct-16 17:33N 50°42' E 000°43'28 8.9
2014-Oct-16 14:26N 50°59' E 001°18'8 9.2
2014-Oct-16 13:33N 51°04' E 001°28'1010.1
2014-Oct-16 12:33N 51°11' E 001°40'1010.4
2014-Oct-16 11:33N 51°19' E 001°50'1010.3
2014-Oct-16 10:33N 51°27' E 001°60'10 9.8
2014-Oct-16 09:33N 51°34' E 002°11'10 9.4
2014-Oct-16 08:27N 51°42' E 002°22'12 9.0
2014-Oct-16 07:05N 51°51' E 002°35'9 8.9
2014-Oct-16 06:06N 51°58' E 002°45'5 8.9
2014-Oct-16 05:33N 52°01' E 002°50'3110.3
2014-Oct-16 02:31N 52°03' E 003°40'1010.1
2014-Oct-16 01:33N 52°02' E 003°56'1212.0
2014-Oct-16 00:33N 51°56' E 004°13'3 3.1
2014-Oct-15 23:32N 51°53' E 004°16'0 0.0
2014-Oct-15 22:33N 51°53' E 004°16'0 0.0
2014-Oct-15 21:29N 51°53' E 004°16'0 0.0
2014-Oct-15 20:32N 51°53' E 004°16'0 0.0
2014-Oct-15 19:32N 51°53' E 004°16'0 0.0
2014-Oct-15 18:32N 51°53' E 004°16'0 0.0
2014-Oct-15 17:29N 51°53' E 004°16'0 0.0
2014-Oct-15 16:29N 51°53' E 004°16'0 0.0
2014-Oct-15 15:32N 51°53' E 004°16'0 0.0
2014-Oct-15 14:29N 51°53' E 004°16'0 0.0
2014-Oct-15 13:32N 51°53' E 004°16'0 0.0
2014-Oct-15 12:32N 51°53' E 004°16'0 0.0
2014-Oct-15 11:32N 51°53' E 004°16'0 0.0
2014-Oct-15 10:29N 51°53' E 004°16'0 0.0
2014-Oct-15 09:26N 51°53' E 004°16'0 0.0
2014-Oct-15 08:32N 51°53' E 004°16'0 0.0
2014-Oct-15 07:32N 51°53' E 004°16'0 0.0
2014-Oct-15 06:32N 51°53' E 004°16'0 0.0
2014-Oct-15 05:32N 51°53' E 004°16'0 0.0
2014-Oct-15 04:32N 51°53' E 004°16'0 0.0
2014-Oct-15 03:32N 51°53' E 004°16'0 0.0
2014-Oct-15 02:29N 51°53' E 004°16'0 0.0
2014-Oct-15 01:32N 51°53' E 004°16'0 0.0
2014-Oct-15 00:32N 51°53' E 004°16'0 0.0
2014-Oct-14 23:32N 51°53' E 004°16'0 0.0
2014-Oct-14 22:32N 51°53' E 004°16'0 0.0
2014-Oct-14 21:32N 51°53' E 004°16'0 0.0
2014-Oct-14 20:32N 51°53' E 004°16'0 0.0
2014-Oct-14 19:32N 51°53' E 004°16'0 0.0
2014-Oct-14 18:32N 51°53' E 004°16'0 0.0
2014-Oct-14 17:32N 51°53' E 004°16'0 0.0
2014-Oct-14 16:26N 51°53' E 004°16'0 0.0
2014-Oct-14 15:32N 51°53' E 004°16'0 0.0
2014-Oct-14 14:32N 51°53' E 004°16'0 0.0
2014-Oct-14 13:32N 51°53' E 004°16'0 0.0
2014-Oct-14 12:29N 51°53' E 004°16'0 0.0
2014-Oct-14 11:32N 51°53' E 004°16'0 0.0
2014-Oct-14 10:32N 51°53' E 004°16'0 0.0
2014-Oct-14 09:32N 51°53' E 004°16'0 0.0
2014-Oct-14 08:32N 51°53' E 004°16'0 0.0
2014-Oct-14 07:32N 51°53' E 004°16'0 0.0
2014-Oct-14 06:32N 51°53' E 004°16'0 0.0
2014-Oct-14 05:26N 51°53' E 004°16'0 0.0
2014-Oct-14 04:32N 51°53' E 004°16'0 0.0
2014-Oct-14 03:32N 51°53' E 004°16'0 0.0
2014-Oct-14 02:32N 51°53' E 004°16'0 0.0
2014-Oct-14 01:32N 51°53' E 004°16'0 0.0
2014-Oct-14 00:32N 51°53' E 004°16'0 0.0
2014-Oct-13 23:32N 51°53' E 004°16'0 0.0
2014-Oct-13 22:32N 51°53' E 004°16'0 0.0
2014-Oct-13 21:32N 51°53' E 004°16'0 0.0
2014-Oct-13 20:32N 51°53' E 004°16'0 0.0
2014-Oct-13 19:29N 51°53' E 004°16'0 0.0
2014-Oct-13 18:32N 51°53' E 004°16'0 0.0
2014-Oct-13 17:26N 51°53' E 004°16'0 0.0
2014-Oct-13 16:32N 51°53' E 004°16'0 0.0
2014-Oct-13 15:32N 51°53' E 004°16'0 0.0
2014-Oct-13 14:32N 51°53' E 004°16'0 0.0
2014-Oct-13 13:32N 51°53' E 004°16'0 0.0
2014-Oct-13 12:29N 51°53' E 004°16'0 0.0
2014-Oct-13 11:32N 51°53' E 004°16'0 0.0
2014-Oct-13 10:26N 51°53' E 004°16'0 0.0
2014-Oct-13 09:23N 51°53' E 004°16'0 0.0
2014-Oct-13 08:29N 51°53' E 004°16'0 0.0
2014-Oct-13 07:32N 51°53' E 004°16'0 0.0
2014-Oct-13 06:32N 51°53' E 004°16'0 0.0
2014-Oct-13 05:32N 51°53' E 004°16'0 0.0
2014-Oct-13 04:32N 51°53' E 004°16'0 0.0
2014-Oct-13 03:26N 51°53' E 004°16'0 0.0
2014-Oct-13 02:32N 51°53' E 004°16'0 0.0
2014-Oct-13 01:29N 51°53' E 004°16'0 0.0
2014-Oct-13 00:26N 51°53' E 004°16'0 0.0
2014-Oct-12 23:32N 51°53' E 004°16'0 0.0
2014-Oct-12 22:26N 51°53' E 004°16'0 0.0
2014-Oct-12 21:32N 51°53' E 004°16'0 0.0
2014-Oct-12 20:26N 51°53' E 004°16'0 0.0
2014-Oct-12 19:29N 51°53' E 004°16'0 0.0
2014-Oct-12 18:29N 51°53' E 004°16'0 0.0
2014-Oct-12 17:32N 51°53' E 004°16'0 0.0
2014-Oct-12 16:29N 51°53' E 004°16'0 0.0
2014-Oct-12 15:29N 51°53' E 004°16'0 0.0
2014-Oct-12 14:32N 51°53' E 004°16'0 0.0
2014-Oct-12 13:32N 51°53' E 004°16'0 0.0
2014-Oct-12 12:32N 51°53' E 004°16'0 0.0
2014-Oct-12 11:32N 51°53' E 004°16'0 0.0
2014-Oct-12 10:32N 51°53' E 004°16'0 0.0
2014-Oct-12 09:32N 51°53' E 004°16'0 0.0
2014-Oct-12 08:32N 51°53' E 004°16'0 0.0
2014-Oct-12 07:32N 51°53' E 004°16'0 0.0
2014-Oct-12 06:32N 51°53' E 004°16'0 0.0
2014-Oct-12 05:32N 51°53' E 004°16'0 0.0
2014-Oct-12 04:32N 51°53' E 004°16'0 0.0
2014-Oct-12 03:32N 51°53' E 004°16'0 0.0
2014-Oct-12 02:29N 51°53' E 004°16'0 0.0
2014-Oct-12 01:32N 51°53' E 004°16'0 0.0
2014-Oct-12 00:32N 51°53' E 004°16'0 0.0
2014-Oct-11 23:32N 51°53' E 004°16'0 0.0
2014-Oct-11 22:32N 51°53' E 004°16'0 0.0
2014-Oct-11 21:29N 51°53' E 004°16'0 0.0
2014-Oct-11 20:32N 51°53' E 004°16'  

Dump ship's entire track history